Time;durP1;ratioP1;P1;durP2;ratioP2;P2;SDS_P1;SDS_P2;PMS_P1;PMS_P2;Temp;Humidity;BMP_temperature;BMP_pressure;BME280_temperature;BME280_humidity;BME280_pressure;Samples;Min_cycle;Max_cycle;Signal;HPM_P1;HPM_P2
2024/03/16 00:01:49;;;;;;;25.15;4.60;;;14.50;94.60;;;;;;5007369;28;20037;-59
2024/03/16 00:04:14;;;;;;;26.40;4.97;;;14.50;94.60;;;;;;5007181;28;20099;-59
2024/03/16 00:06:40;;;;;;;22.77;4.15;;;14.50;94.60;;;;;;5007284;28;20116;-60
2024/03/16 00:09:06;;;;;;;22.77;3.85;;;14.40;94.50;;;;;;5007201;28;20473;-59
2024/03/16 00:11:31;;;;;;;22.67;3.33;;;14.50;94.60;;;;;;5023348;28;20523;-59
2024/03/16 00:14:03;;;;;;;21.92;3.85;;;14.40;94.60;;;;;;5006921;28;20025;-59
2024/03/16 00:16:30;;;;;;;20.38;3.17;;;14.50;94.60;;;;;;5023337;28;20334;-59
2024/03/16 00:18:56;;;;;;;26.90;3.28;;;14.40;94.50;;;;;;5007593;28;20028;-60
2024/03/16 00:21:22;;;;;;;23.05;3.28;;;14.40;94.40;;;;;;4990586;28;20117;-59
2024/03/16 00:23:47;;;;;;;31.05;3.47;;;14.40;94.40;;;;;;5006982;28;20034;-59
2024/03/16 00:26:13;;;;;;;19.75;3.83;;;14.30;94.40;;;;;;5007114;28;20030;-60
2024/03/16 00:28:39;;;;;;;24.52;3.53;;;14.30;94.50;;;;;;5007078;28;20076;-59
2024/03/16 00:31:05;;;;;;;11.65;3.10;;;14.30;94.60;;;;;;5006771;28;20036;-59
2024/03/16 00:33:31;;;;;;;16.95;3.05;;;14.30;94.60;;;;;;5024650;28;20034;-59
2024/03/16 00:35:57;;;;;;;17.08;2.85;;;14.30;94.60;;;;;;5006524;28;20018;-59
2024/03/16 00:38:26;;;;;;;21.65;3.72;;;14.20;94.60;;;;;;5024325;28;20084;-59
2024/03/16 00:40:52;;;;;;;20.30;3.15;;;14.20;94.70;;;;;;5007344;28;20022;-59
2024/03/16 00:43:18;;;;;;;16.73;3.38;;;14.20;94.70;;;;;;5006807;28;20105;-59
2024/03/16 00:45:44;;;;;;;24.98;3.28;;;14.10;94.70;;;;;;5006905;28;20441;-59
2024/03/16 00:48:11;;;;;;;13.00;2.83;;;14.10;94.70;;;;;;5006799;28;20037;-59
2024/03/16 00:50:38;;;;;;;13.82;3.10;;;14.10;94.70;;;;;;5007432;28;20053;-59
2024/03/16 00:53:03;;;;;;;18.67;3.10;;;14.10;94.70;;;;;;5006757;28;20029;-59
2024/03/16 00:55:29;;;;;;;14.00;3.10;;;14.10;94.70;;;;;;5006372;28;20449;-59
2024/03/16 00:57:55;;;;;;;13.23;2.58;;;14.00;94.70;;;;;;5006703;28;20033;-59
2024/03/16 01:00:20;;;;;;;11.68;2.60;;;14.00;94.80;;;;;;5024235;28;20022;-59
2024/03/16 01:02:46;;;;;;;19.40;3.22;;;14.00;94.80;;;;;;5006625;28;20105;-59
2024/03/16 01:05:13;;;;;;;19.90;3.45;;;14.00;94.80;;;;;;5006503;28;20036;-59
2024/03/16 01:07:39;;;;;;;14.70;2.95;;;14.00;94.90;;;;;;5006481;28;20100;-59
2024/03/16 01:10:05;;;;;;;7.45;2.15;;;14.00;94.90;;;;;;5006181;28;20103;-59
2024/03/16 01:12:30;;;;;;;12.82;2.40;;;14.00;94.80;;;;;;5006414;28;20038;-59
2024/03/16 01:14:57;;;;;;;10.30;2.38;;;14.00;94.70;;;;;;5022716;28;20045;-59
2024/03/16 01:17:22;;;;;;;13.93;2.30;;;13.90;94.70;;;;;;5006427;28;20037;-59
2024/03/16 01:19:48;;;;;;;8.95;1.98;;;13.90;94.80;;;;;;5024155;28;20029;-59
2024/03/16 01:22:14;;;;;;;19.05;2.05;;;13.90;94.90;;;;;;5023835;28;20033;-59
2024/03/16 01:24:39;;;;;;;8.40;2.28;;;13.90;94.90;;;;;;5006386;28;20080;-59
2024/03/16 01:27:05;;;;;;;11.77;2.08;;;13.80;94.80;;;;;;5024088;28;20034;-59
2024/03/16 01:29:32;;;;;;;8.20;1.95;;;13.80;94.90;;;;;;5005907;28;20041;-59
2024/03/16 01:31:58;;;;;;;7.38;2.17;;;13.80;95.00;;;;;;4989961;28;20057;-59
2024/03/16 01:34:23;;;;;;;11.13;1.90;;;13.70;95.00;;;;;;5023870;28;20033;-59
2024/03/16 01:36:49;;;;;;;9.20;1.92;;;13.80;95.10;;;;;;5023842;28;20030;-59
2024/03/16 01:39:15;;;;;;;12.40;2.00;;;13.70;95.10;;;;;;5006190;28;20357;-59
2024/03/16 01:41:41;;;;;;;9.90;2.20;;;13.70;95.10;;;;;;5022513;28;20041;-59
2024/03/16 01:44:11;;;;;;;9.30;1.70;;;13.70;95.10;;;;;;5006286;28;20026;-59
2024/03/16 01:46:39;;;;;;;8.90;2.15;;;13.70;95.20;;;;;;5024120;28;20085;-59
2024/03/16 01:49:07;;;;;;;9.15;1.55;;;13.70;95.10;;;;;;5027478;28;20048;-59
2024/03/16 01:51:33;;;;;;;7.07;1.67;;;13.70;95.20;;;;;;5010526;28;20029;-59
2024/03/16 01:53:59;;;;;;;4.13;1.67;;;13.70;95.20;;;;;;5026605;28;20033;-59
2024/03/16 01:56:24;;;;;;;5.40;1.35;;;13.70;95.20;;;;;;5010070;28;20515;-59
2024/03/16 01:58:50;;;;;;;6.45;1.60;;;13.60;95.20;;;;;;5010051;28;20026;-59
2024/03/16 02:01:15;;;;;;;6.43;1.50;;;13.60;95.20;;;;;;5009661;28;20029;-59
2024/03/16 02:03:42;;;;;;;8.18;1.73;;;13.60;95.20;;;;;;5010043;28;20064;-59
2024/03/16 02:06:08;;;;;;;8.02;2.35;;;13.60;95.20;;;;;;5009963;28;20045;-60
2024/03/16 02:08:34;;;;;;;12.23;1.40;;;13.50;95.20;;;;;;4993151;28;20400;-60
2024/03/16 02:11:00;;;;;;;8.02;2.17;;;13.50;95.30;;;;;;5009574;28;20026;-59
2024/03/16 02:13:25;;;;;;;7.20;1.40;;;13.50;95.30;;;;;;5025718;28;20096;-59
2024/03/16 02:15:51;;;;;;;7.65;1.80;;;13.60;95.30;;;;;;5009254;28;20076;-59
2024/03/16 02:18:17;;;;;;;10.43;1.63;;;13.50;95.20;;;;;;5026994;28;20030;-59
2024/03/16 02:20:43;;;;;;;3.33;1.08;;;13.50;95.20;;;;;;5009121;28;20045;-60
2024/03/16 02:23:08;;;;;;;6.80;1.42;;;13.50;95.20;;;;;;5009015;28;20029;-59
2024/03/16 02:25:34;;;;;;;6.05;1.40;;;13.50;95.20;;;;;;4992857;28;20030;-59
2024/03/16 02:27:59;;;;;;;8.30;1.60;;;13.50;95.30;;;;;;5026682;28;20085;-59
2024/03/16 02:30:25;;;;;;;8.77;1.70;;;13.40;95.30;;;;;;5009048;28;20022;-59
2024/03/16 02:32:51;;;;;;;4.07;1.40;;;13.40;95.30;;;;;;4992534;28;20041;-59
2024/03/16 02:35:16;;;;;;;7.32;1.40;;;13.40;95.30;;;;;;5025218;28;20045;-59
2024/03/16 02:37:42;;;;;;;6.22;1.40;;;13.40;95.30;;;;;;5008865;28;20088;-59
2024/03/16 02:40:11;;;;;;;5.25;1.58;;;13.40;95.30;;;;;;5008974;28;20053;-59
2024/03/16 02:42:38;;;;;;;3.45;1.60;;;13.30;95.30;;;;;;5026628;28;20046;-59
2024/03/16 02:45:05;;;;;;;7.50;1.70;;;13.30;95.30;;;;;;5026442;28;20030;-59
2024/03/16 02:47:31;;;;;;;5.70;1.55;;;13.30;95.30;;;;;;5008587;28;20038;-59
2024/03/16 02:49:57;;;;;;;7.63;1.90;;;13.30;95.40;;;;;;5008628;28;20615;-59
2024/03/16 02:52:23;;;;;;;5.55;1.75;;;13.30;95.40;;;;;;5008567;28;20480;-59
2024/03/16 02:54:48;;;;;;;5.80;2.10;;;13.30;95.40;;;;;;5026294;28;20038;-59
2024/03/16 02:57:14;;;;;;;6.82;2.30;;;13.30;95.50;;;;;;5026477;28;20085;-59
2024/03/16 02:59:40;;;;;;;7.57;2.35;;;13.30;95.50;;;;;;5025561;28;20045;-59
2024/03/16 03:02:06;;;;;;;4.88;1.92;;;13.30;95.50;;;;;;5026167;28;20033;-59
2024/03/16 03:04:31;;;;;;;6.70;2.03;;;13.30;95.50;;;;;;5024833;28;20033;-59
2024/03/16 03:06:57;;;;;;;5.78;2.20;;;13.30;95.50;;;;;;4991984;28;20036;-59
2024/03/16 03:09:22;;;;;;;4.60;2.42;;;13.30;95.60;;;;;;5008008;28;20041;-59
2024/03/16 03:11:48;;;;;;;6.25;2.50;;;13.20;95.60;;;;;;5027902;28;20040;-59
2024/03/16 03:14:17;;;;;;;7.35;2.40;;;13.30;95.60;;;;;;4992031;28;20030;-59
2024/03/16 03:16:43;;;;;;;6.60;2.60;;;13.20;95.50;;;;;;5008696;28;20030;-59
2024/03/16 03:19:09;;;;;;;5.47;2.63;;;13.20;95.50;;;;;;5008091;28;20026;-59
2024/03/16 03:21:35;;;;;;;7.65;3.00;;;13.20;95.50;;;;;;5024335;28;20018;-59
2024/03/16 03:24:02;;;;;;;5.28;2.38;;;13.20;95.60;;;;;;5025699;28;20041;-59
2024/03/16 03:26:29;;;;;;;4.50;2.50;;;13.20;95.60;;;;;;4991787;28;20025;-59
2024/03/16 03:28:54;;;;;;;7.35;2.92;;;13.20;95.60;;;;;;5025767;28;20045;-59
2024/03/16 03:31:20;;;;;;;6.93;2.65;;;13.10;95.60;;;;;;5007973;28;20030;-59
2024/03/16 03:33:46;;;;;;;5.50;3.03;;;13.10;95.70;;;;;;5007927;28;20384;-59
2024/03/16 03:36:11;;;;;;;5.40;2.58;;;13.10;95.70;;;;;;5025679;28;20040;-59
2024/03/16 03:38:37;;;;;;;5.07;2.25;;;13.10;95.80;;;;;;5025473;28;20041;-59
2024/03/16 03:41:03;;;;;;;6.75;3.00;;;13.10;95.80;;;;;;5024057;28;20029;-59
2024/03/16 03:43:30;;;;;;;6.65;2.67;;;13.10;95.80;;;;;;5024035;28;20137;-59
2024/03/16 03:45:57;;;;;;;4.70;2.67;;;13.00;95.90;;;;;;5007989;28;20056;-59
2024/03/16 03:50:49;;;;;;;4.47;2.80;;;13.00;95.90;;;;;;5007567;28;20191;-59
2024/03/16 03:53:15;;;;;;;5.03;2.75;;;13.00;96.00;;;;;;5007075;28;20053;-59
2024/03/16 03:55:42;;;;;;;4.63;2.45;;;13.00;96.00;;;;;;5025859;28;20022;-59
2024/03/16 03:58:07;;;;;;;3.35;2.50;;;13.00;96.00;;;;;;5025176;28;20121;-59
2024/03/16 04:00:33;;;;;;;3.92;2.47;;;13.00;96.00;;;;;;5025074;28;20448;-59
2024/03/16 04:03:11;;;;;;;5.10;2.55;;;13.00;96.00;;;;;;5024983;28;20034;-59
2024/03/16 04:05:37;;;;;;;3.78;2.65;;;13.00;96.00;;;;;;5025178;28;20029;-59
2024/03/16 04:08:04;;;;;;;8.10;2.95;;;13.00;96.10;;;;;;5007024;28;20034;-59
2024/03/16 04:10:30;;;;;;;5.30;2.95;;;13.00;96.10;;;;;;5007781;28;20030;-59
2024/03/16 04:12:56;;;;;;;3.38;2.65;;;12.90;96.10;;;;;;5024309;28;20045;-59
2024/03/16 04:15:21;;;;;;;5.68;2.45;;;12.90;96.10;;;;;;5007561;28;20029;-59
2024/03/16 04:17:47;;;;;;;4.55;2.50;;;12.90;96.10;;;;;;5024787;28;20038;-59
2024/03/16 04:20:13;;;;;;;4.38;2.60;;;12.90;96.10;;;;;;5007115;28;20033;-59
2024/03/16 04:22:41;;;;;;;5.43;2.47;;;12.90;96.20;;;;;;5024871;28;20065;-59
2024/03/16 04:25:09;;;;;;;6.15;2.78;;;12.90;96.20;;;;;;5006751;28;20033;-59
2024/03/16 04:27:35;;;;;;;6.10;3.17;;;12.90;96.20;;;;;;5007018;28;20097;-59
2024/03/16 04:30:00;;;;;;;4.97;2.40;;;12.90;96.20;;;;;;5023352;28;20030;-59
2024/03/16 04:32:30;;;;;;;5.10;2.70;;;12.80;96.20;;;;;;5024653;28;20106;-59
2024/03/16 04:34:56;;;;;;;4.82;2.58;;;12.80;96.30;;;;;;5024484;28;20048;-59
2024/03/16 04:37:21;;;;;;;5.05;2.40;;;12.80;96.30;;;;;;5006692;28;20442;-59
2024/03/16 04:39:47;;;;;;;5.82;2.50;;;12.80;96.30;;;;;;5006804;28;20105;-59
2024/03/16 04:42:13;;;;;;;3.97;2.47;;;12.80;96.30;;;;;;5024544;28;20053;-59
2024/03/16 04:44:39;;;;;;;5.72;2.80;;;12.80;96.40;;;;;;5023202;28;20053;-59
2024/03/16 04:47:05;;;;;;;4.30;2.40;;;12.80;96.40;;;;;;5006575;28;20385;-56
2024/03/16 04:49:30;;;;;;;8.45;2.75;;;12.80;96.40;;;;;;5024394;28;20067;-56
2024/03/16 04:51:56;;;;;;;3.92;2.60;;;12.80;96.40;;;;;;5006779;28;20053;-57
2024/03/16 04:54:22;;;;;;;3.42;2.33;;;12.80;96.40;;;;;;5006541;28;20159;-56
2024/03/16 04:56:47;;;;;;;4.22;2.40;;;12.80;96.40;;;;;;5024069;28;20072;-57
2024/03/16 04:59:13;;;;;;;6.88;2.90;;;12.80;96.40;;;;;;4990201;28;20033;-56
2024/03/16 05:01:39;;;;;;;4.85;2.35;;;12.80;96.40;;;;;;5024308;28;20054;-56
2024/03/16 05:04:04;;;;;;;5.20;2.70;;;12.80;96.50;;;;;;5022781;28;20452;-56
2024/03/16 05:06:34;;;;;;;2.50;1.90;;;12.80;96.50;;;;;;5022847;28;20057;-56
2024/03/16 05:09:04;;;;;;;3.80;2.15;;;12.80;96.50;;;;;;5006322;28;20025;-56
2024/03/16 05:11:30;;;;;;;4.18;2.00;;;12.70;96.50;;;;;;5007055;28;20033;-56
2024/03/16 05:13:58;;;;;;;4.90;2.55;;;12.80;96.60;;;;;;5006268;28;20025;-56
2024/03/16 05:16:23;;;;;;;3.97;2.20;;;12.70;96.60;;;;;;5023861;28;20046;-56
2024/03/16 05:18:49;;;;;;;3.20;2.15;;;12.70;96.70;;;;;;5006212;28;20029;-56
2024/03/16 05:21:15;;;;;;;3.90;2.42;;;12.70;96.70;;;;;;5006275;28;20018;-56
2024/03/16 05:23:45;;;;;;;3.35;2.20;;;12.70;97.10;;;;;;5008492;28;20120;-57
2024/03/16 05:26:10;;;;;;;4.75;2.05;;;12.70;96.80;;;;;;5010721;28;20040;-56
2024/03/16 05:28:36;;;;;;;4.07;2.15;;;12.70;96.80;;;;;;5026499;28;20074;-56
2024/03/16 05:31:02;;;;;;;5.97;2.50;;;12.60;96.80;;;;;;5026943;28;20052;-56
2024/03/16 05:33:27;;;;;;;3.90;2.10;;;12.70;96.90;;;;;;5028178;28;20041;-56
2024/03/16 05:35:53;;;;;;;4.28;2.20;;;12.60;96.80;;;;;;5010334;28;20121;-56
2024/03/16 05:38:20;;;;;;;2.80;1.98;;;12.60;96.90;;;;;;5026007;28;20032;-56
2024/03/16 05:40:47;;;;;;;3.75;2.00;;;12.60;96.90;;;;;;5010187;28;20026;-56
2024/03/16 05:43:12;;;;;;;3.90;2.13;;;12.60;96.90;;;;;;5010067;28;20076;-56
2024/03/16 05:45:38;;;;;;;3.42;2.28;;;12.60;97.00;;;;;;5027692;28;20026;-56
2024/03/16 05:48:04;;;;;;;5.45;2.00;;;12.60;97.00;;;;;;5009821;28;20476;-56
2024/03/16 05:50:29;;;;;;;3.67;2.10;;;12.60;97.00;;;;;;5027526;28;20033;-56
2024/03/16 05:52:55;;;;;;;6.40;2.25;;;12.60;97.00;;;;;;5009416;28;20061;-56
2024/03/16 05:55:21;;;;;;;4.10;2.00;;;12.60;97.10;;;;;;5009649;28;20053;-56
2024/03/16 05:57:46;;;;;;;4.03;2.00;;;12.60;97.10;;;;;;5027231;28;20109;-56
2024/03/16 06:00:15;;;;;;;2.50;1.80;;;12.60;97.10;;;;;;5010367;28;20029;-56
2024/03/16 06:02:41;;;;;;;4.47;1.77;;;12.60;97.10;;;;;;5009946;28;20505;-57
2024/03/16 06:05:07;;;;;;;5.97;2.25;;;12.60;97.10;;;;;;4993204;28;20056;-56
2024/03/16 06:07:33;;;;;;;4.05;2.03;;;12.60;97.40;;;;;;5009504;28;20105;-56
2024/03/16 06:09:59;;;;;;;6.47;1.70;;;12.60;97.10;;;;;;5027159;28;20484;-56
2024/03/16 06:12:27;;;;;;;2.97;1.60;;;12.60;97.20;;;;;;4993114;28;20049;-56
2024/03/16 06:14:53;;;;;;;3.78;1.90;;;12.60;97.20;;;;;;5009614;28;20101;-56
2024/03/16 06:17:19;;;;;;;7.35;2.58;;;12.60;97.20;;;;;;5009359;28;20108;-56
2024/03/16 06:19:44;;;;;;;12.52;3.10;;;12.60;97.20;;;;;;5025892;28;20045;-56
2024/03/16 06:22:10;;;;;;;4.55;2.00;;;12.60;97.20;;;;;;5025622;28;20117;-56
2024/03/16 06:24:36;;;;;;;4.07;2.15;;;12.60;97.30;;;;;;5009352;28;20041;-56
2024/03/16 06:27:05;;;;;;;12.00;2.72;;;12.60;97.30;;;;;;5009065;28;20065;-56
2024/03/16 06:29:34;;;;;;;8.80;3.05;;;12.60;97.30;;;;;;5009718;28;20018;-56
2024/03/16 06:32:06;;;;;;;7.78;2.95;;;12.60;97.30;;;;;;4992812;28;20129;-57
2024/03/16 06:34:35;;;;;;;7.47;3.13;;;12.60;97.30;;;;;;5008799;28;20074;-56
2024/03/16 06:37:01;;;;;;;7.20;2.72;;;12.50;97.30;;;;;;5025212;28;20036;-56
2024/03/16 06:39:27;;;;;;;9.90;2.90;;;12.60;97.30;;;;;;5025174;28;20022;-56
2024/03/16 06:41:53;;;;;;;11.85;2.88;;;12.50;97.40;;;;;;5008830;28;20069;-56
2024/03/16 06:44:18;;;;;;;8.95;2.60;;;12.50;97.40;;;;;;5008894;28;20026;-56
2024/03/16 06:46:44;;;;;;;9.35;3.10;;;12.50;97.40;;;;;;5008753;28;20037;-57
2024/03/16 06:49:10;;;;;;;14.02;3.80;;;12.50;97.40;;;;;;5026555;28;20029;-56
2024/03/16 06:51:36;;;;;;;18.77;4.28;;;12.60;97.50;;;;;;5025181;28;20060;-56
2024/03/16 06:54:01;;;;;;;15.13;3.20;;;12.60;97.50;;;;;;5008379;28;20129;-56
2024/03/16 06:56:27;;;;;;;14.80;3.80;;;12.50;97.50;;;;;;5026155;28;20090;-56
2024/03/16 06:58:52;;;;;;;17.95;3.97;;;12.60;97.60;;;;;;5024916;28;20041;-56
2024/03/16 07:01:19;;;;;;;13.38;3.72;;;12.60;97.60;;;;;;5008210;28;20022;-56
2024/03/16 07:03:44;;;;;;;17.17;4.18;;;12.60;97.60;;;;;;5008568;28;20029;-56
2024/03/16 07:06:10;;;;;;;7.90;3.30;;;12.60;97.70;;;;;;5008639;28;20060;-56
2024/03/16 07:08:38;;;;;;;11.18;3.65;;;12.60;97.80;;;;;;5026126;28;20029;-56
2024/03/16 07:11:04;;;;;;;16.23;3.90;;;12.60;97.80;;;;;;5041098;28;20184;-56
2024/03/16 07:13:31;;;;;;;24.33;3.97;;;12.60;97.80;;;;;;5008287;28;20065;-56
2024/03/16 07:15:56;;;;;;;23.13;3.90;;;12.60;97.80;;;;;;5026175;28;20026;-56
2024/03/16 07:18:22;;;;;;;22.58;3.97;;;12.60;97.80;;;;;;4991917;28;20058;-57
2024/03/16 07:20:48;;;;;;;25.17;3.72;;;12.60;97.80;;;;;;5026097;28;20082;-56
2024/03/16 07:23:13;;;;;;;28.33;3.83;;;12.60;97.80;;;;;;5008134;28;20101;-56
2024/03/16 07:25:41;;;;;;;23.48;4.43;;;12.60;97.70;;;;;;5024480;28;20035;-56
2024/03/16 07:28:07;;;;;;;38.28;5.53;;;12.60;97.70;;;;;;5008209;28;20026;-56
2024/03/16 07:30:35;;;;;;;27.08;5.00;;;12.70;97.70;;;;;;5008307;28;20034;-57
2024/03/16 07:33:02;;;;;;;23.17;4.82;;;12.60;97.60;;;;;;5008184;28;20034;-57
2024/03/16 07:35:28;;;;;;;23.02;4.65;;;12.60;97.80;;;;;;5008147;28;20044;-56
2024/03/16 07:37:55;;;;;;;42.33;5.53;;;12.60;98.10;;;;;;5025301;28;20030;-56
2024/03/16 07:40:21;;;;;;;32.63;5.45;;;12.60;97.90;;;;;;5008324;28;20032;-56
2024/03/16 07:42:47;;;;;;;35.72;5.18;;;12.70;98.00;;;;;;5024691;28;20061;-56
2024/03/16 07:45:14;;;;;;;22.40;5.35;;;12.70;97.90;;;;;;5025469;28;20102;-56
2024/03/16 07:47:40;;;;;;;22.58;4.72;;;12.70;97.90;;;;;;5025354;28;20038;-56
2024/03/16 07:50:06;;;;;;;35.50;5.82;;;12.70;97.90;;;;;;5025706;28;20036;-56
2024/03/16 07:52:32;;;;;;;37.38;5.40;;;12.70;97.90;;;;;;5023954;28;20038;-56
2024/03/16 07:54:59;;;;;;;43.70;5.95;;;12.70;98.00;;;;;;5007934;28;20148;-56
2024/03/16 07:57:27;;;;;;;32.08;6.00;;;12.80;98.00;;;;;;4991424;28;20041;-56
2024/03/16 07:59:53;;;;;;;36.05;5.03;;;12.80;98.00;;;;;;5007461;28;20022;-56
2024/03/16 08:02:18;;;;;;;32.25;4.68;;;12.80;98.00;;;;;;5025102;28;20087;-56
2024/03/16 08:04:44;;;;;;;28.52;4.82;;;12.80;98.00;;;;;;5024965;28;20030;-56
2024/03/16 08:07:10;;;;;;;28.92;5.35;;;12.80;98.00;;;;;;5023727;28;20033;-56
2024/03/16 08:09:36;;;;;;;33.70;5.18;;;12.80;97.90;;;;;;5025110;28;20026;-57
2024/03/16 08:12:02;;;;;;;26.88;4.32;;;12.80;98.00;;;;;;5023650;28;20045;-56
2024/03/16 08:14:34;;;;;;;32.70;4.75;;;12.80;98.00;;;;;;5024665;28;20453;-56
2024/03/16 08:17:05;;;;;;;32.35;5.45;;;12.80;98.00;;;;;;5007994;28;20038;-56
2024/03/16 08:19:31;;;;;;;16.75;4.97;;;12.80;98.10;;;;;;5007462;28;20090;-56
2024/03/16 08:21:57;;;;;;;23.48;5.63;;;12.80;98.10;;;;;;5007032;28;20026;-56
2024/03/16 08:24:23;;;;;;;33.70;4.85;;;12.80;98.20;;;;;;5024859;28;20056;-57
2024/03/16 08:26:48;;;;;;;24.58;4.93;;;12.80;98.20;;;;;;5023351;28;20496;-56
2024/03/16 08:29:14;;;;;;;30.00;4.65;;;12.80;98.30;;;;;;5007091;28;20045;-56
2024/03/16 08:31:40;;;;;;;22.35;5.13;;;12.80;98.30;;;;;;5006831;28;20033;-56
2024/03/16 08:34:05;;;;;;;20.23;4.00;;;12.80;98.30;;;;;;5006742;28;20117;-56
2024/03/16 08:36:31;;;;;;;21.80;4.72;;;12.80;98.30;;;;;;5007080;28;20045;-56
2024/03/16 08:38:56;;;;;;;22.35;5.25;;;12.80;98.30;;;;;;4990615;28;20056;-56
2024/03/16 08:41:22;;;;;;;19.52;4.05;;;12.80;98.40;;;;;;5007031;28;20032;-56
2024/03/16 08:43:48;;;;;;;21.05;3.50;;;12.80;98.40;;;;;;5007144;28;20034;-56
2024/03/16 08:46:14;;;;;;;20.75;3.95;;;12.80;98.40;;;;;;5024735;28;20085;-56
2024/03/16 08:48:40;;;;;;;22.08;3.83;;;12.80;98.50;;;;;;5006609;28;20034;-56
2024/03/16 08:51:05;;;;;;;23.60;3.83;;;12.80;98.50;;;;;;5024471;28;20104;-56
2024/03/16 08:53:31;;;;;;;24.63;4.30;;;12.80;98.50;;;;;;5006237;28;20046;-56
2024/03/16 08:55:58;;;;;;;12.75;2.97;;;12.90;98.50;;;;;;5003997;28;20191;-56
2024/03/16 08:58:27;;;;;;;16.20;3.55;;;12.90;98.50;;;;;;5005924;28;20022;-56
2024/03/16 09:00:53;;;;;;;18.13;2.75;;;12.90;98.60;;;;;;5006876;28;20018;-56
2024/03/16 09:03:19;;;;;;;21.90;3.35;;;12.90;98.60;;;;;;5006767;28;20030;-56
2024/03/16 09:05:45;;;;;;;13.63;3.17;;;12.90;98.60;;;;;;4989952;28;20090;-56
2024/03/16 09:08:11;;;;;;;23.48;3.63;;;12.90;98.70;;;;;;4978128;28;20026;-56
2024/03/16 09:10:36;;;;;;;29.95;3.95;;;12.90;98.80;;;;;;5015778;28;20120;-56
2024/03/16 09:13:03;;;;;;;31.65;4.53;;;12.90;98.90;;;;;;5013198;28;20343;-56
2024/03/16 09:15:28;;;;;;;19.85;3.63;;;12.90;99.00;;;;;;5009366;28;20069;-56
2024/03/16 09:17:54;;;;;;;26.00;3.80;;;12.90;99.00;;;;;;5007484;28;20385;-56
2024/03/16 09:20:20;;;;;;;39.28;4.53;;;13.00;99.00;;;;;;5009845;28;20060;-56
2024/03/16 09:22:47;;;;;;;43.88;6.43;;;13.00;99.10;;;;;;5030664;28;20041;-56
2024/03/16 09:25:13;;;;;;;46.95;6.38;;;13.00;99.20;;;;;;4991941;28;20033;-56
2024/03/16 09:27:39;;;;;;;37.28;5.95;;;13.10;99.60;;;;;;5002088;28;20092;-56
2024/03/16 09:30:09;;;;;;;39.13;5.53;;;13.10;99.50;;;;;;5021862;28;20064;-56
2024/03/16 09:32:36;;;;;;;68.45;6.78;;;13.10;99.40;;;;;;5025871;28;20523;-56
2024/03/16 09:35:06;;;;;;;58.85;7.45;;;13.10;99.70;;;;;;4997918;28;20072;-56
2024/03/16 09:37:31;;;;;;;66.95;8.23;;;13.20;99.90;;;;;;5032349;28;20045;-56
2024/03/16 09:39:57;;;;;;;190.00;19.55;;;13.20;99.90;;;;;;5006379;28;20046;-56
2024/03/16 09:42:22;;;;;;;205.85;20.00;;;13.30;99.90;;;;;;4987393;28;20025;-56
2024/03/16 09:44:48;;;;;;;196.98;17.92;;;13.30;99.90;;;;;;5000288;28;20034;-56
2024/03/16 09:47:23;;;;;;;173.73;15.18;;;13.40;99.90;;;;;;4998077;28;20032;-56
2024/03/16 09:49:48;;;;;;;113.20;11.88;;;13.40;99.90;;;;;;5040913;28;20029;-56
2024/03/16 09:52:14;;;;;;;98.70;10.93;;;13.40;99.90;;;;;;5009900;28;20101;-56
2024/03/16 09:54:41;;;;;;;102.65;10.68;;;13.50;99.70;;;;;;5006307;28;20060;-56
2024/03/16 09:57:11;;;;;;;124.30;11.60;;;13.50;99.40;;;;;;5005402;28;20060;-56
2024/03/16 09:59:37;;;;;;;144.30;12.32;;;13.60;99.40;;;;;;4990675;28;20029;-56
2024/03/16 10:02:03;;;;;;;101.05;10.57;;;13.60;99.30;;;;;;5014009;28;20040;-56
2024/03/16 10:04:29;;;;;;;154.50;15.45;;;13.60;99.20;;;;;;5006093;28;20025;-56
2024/03/16 10:06:55;;;;;;;159.75;15.77;;;13.60;99.00;;;;;;4988097;28;20084;-56
2024/03/16 10:09:23;;;;;;;134.23;15.98;;;13.70;99.20;;;;;;5002828;28;20433;-56
2024/03/16 10:11:48;;;;;;;116.78;14.18;;;13.70;98.80;;;;;;5009461;28;20073;-56
2024/03/16 10:14:14;;;;;;;171.32;19.38;;;13.70;98.60;;;;;;5025677;28;20426;-56
2024/03/16 10:16:44;;;;;;;172.80;15.95;;;13.80;98.60;;;;;;5007564;28;20034;-56
2024/03/16 10:19:10;;;;;;;97.72;13.20;;;13.80;98.50;;;;;;5023527;28;20084;-56
2024/03/16 10:21:36;;;;;;;136.10;14.18;;;13.80;98.40;;;;;;5045728;28;20063;-56
2024/03/16 10:24:02;;;;;;;117.38;13.07;;;13.90;98.20;;;;;;5044450;28;20033;-56
2024/03/16 10:26:30;;;;;;;122.65;13.52;;;13.90;98.00;;;;;;5027241;28;20034;-56
2024/03/16 10:28:59;;;;;;;105.28;12.45;;;14.00;97.90;;;;;;5005113;28;20090;-57
2024/03/16 10:31:26;;;;;;;385.15;34.55;;;14.00;97.50;;;;;;5004810;28;20057;-56
2024/03/16 10:33:52;;;;;;;204.95;21.25;;;14.00;97.50;;;;;;5013869;28;20048;-56
2024/03/16 10:36:17;;;;;;;131.30;13.45;;;14.10;97.60;;;;;;4985443;28;20025;-57
2024/03/16 10:38:43;;;;;;;159.82;15.93;;;14.00;97.40;;;;;;5013322;28;20094;-56
2024/03/16 10:41:10;;;;;;;165.98;16.67;;;14.10;97.40;;;;;;5031743;28;20104;-57
2024/03/16 10:43:36;;;;;;;144.75;15.35;;;14.10;97.30;;;;;;5021268;28;20112;-56
2024/03/16 10:46:02;;;;;;;133.75;14.30;;;14.20;97.30;;;;;;4997341;28;20026;-56
2024/03/16 10:48:28;;;;;;;168.40;16.27;;;14.20;97.10;;;;;;4995387;28;20037;-57
2024/03/16 10:50:56;;;;;;;184.80;16.75;;;14.20;96.80;;;;;;5026102;28;20092;-56
2024/03/16 10:53:22;;;;;;;146.68;14.52;;;14.20;96.60;;;;;;4976107;28;20034;-56
2024/03/16 10:55:48;;;;;;;214.50;20.40;;;14.30;96.50;;;;;;4991871;28;20041;-57
2024/03/16 10:58:22;;;;;;;179.23;19.00;;;14.30;96.30;;;;;;4992116;28;20480;-56
2024/03/16 11:00:48;;;;;;;171.50;17.33;;;14.40;96.00;;;;;;4991341;28;20041;-56
2024/03/16 11:03:30;;;;;;;162.32;17.38;;;14.40;95.80;;;;;;5015740;28;20032;-56
2024/03/16 11:06:01;;;;;;;146.40;13.05;;;14.40;95.70;;;;;;4995226;28;20022;-56
2024/03/16 11:08:37;;;;;;;134.38;13.20;;;14.40;95.50;;;;;;4996731;28;20054;-57
2024/03/16 11:11:04;;;;;;;145.20;14.90;;;14.40;95.30;;;;;;4992147;28;20078;-57
2024/03/16 11:13:30;;;;;;;151.95;16.92;;;14.50;95.20;;;;;;5006578;28;20137;-57
2024/03/16 11:15:57;;;;;;;112.80;12.05;;;14.40;95.00;;;;;;5009946;28;20046;-56
2024/03/16 11:18:24;;;;;;;137.15;13.27;;;14.40;95.00;;;;;;5001206;28;20030;-57
2024/03/16 11:20:51;;;;;;;135.68;14.38;;;14.40;94.80;;;;;;5005413;28;20069;-56
2024/03/16 11:23:27;;;;;;;156.20;15.60;;;14.50;94.70;;;;;;5004712;28;20053;-56
2024/03/16 11:25:54;;;;;;;118.22;13.85;;;14.50;94.70;;;;;;5002876;28;20622;-56
2024/03/16 11:28:20;;;;;;;131.55;13.70;;;14.50;94.70;;;;;;5005520;28;20033;-56
2024/03/16 11:30:46;;;;;;;110.65;10.68;;;14.50;94.60;;;;;;5007136;28;20029;-56
2024/03/16 11:33:23;;;;;;;225.48;20.73;;;14.50;94.40;;;;;;5008217;28;20453;-57
2024/03/16 11:35:50;;;;;;;218.90;22.33;;;14.50;94.60;;;;;;5024656;28;20110;-56
2024/03/16 11:38:15;;;;;;;209.05;18.33;;;14.50;94.70;;;;;;5007171;28;20032;-57
2024/03/16 11:40:43;;;;;;;304.48;27.60;;;14.50;94.80;;;;;;4990515;28;20093;-56
2024/03/16 11:43:09;;;;;;;205.48;20.00;;;14.50;94.90;;;;;;5007010;28;20045;-56
2024/03/16 11:45:36;;;;;;;199.95;19.17;;;14.50;94.90;;;;;;4990503;28;20036;-57
2024/03/16 11:48:05;;;;;;;152.30;16.13;;;14.50;95.00;;;;;;5024331;28;20038;-56
2024/03/16 11:50:31;;;;;;;222.93;20.38;;;14.60;94.90;;;;;;5004492;28;20125;-56
2024/03/16 11:52:57;;;;;;;212.13;21.15;;;14.60;95.10;;;;;;4992158;28;20033;-56
2024/03/16 11:55:22;;;;;;;188.02;18.77;;;14.70;95.40;;;;;;5024758;28;20045;-56
2024/03/16 11:57:48;;;;;;;186.77;16.92;;;14.70;95.20;;;;;;5009026;28;20044;-56
2024/03/16 12:00:17;;;;;;;173.07;17.45;;;14.70;95.20;;;;;;5008162;28;20021;-57
2024/03/16 12:02:43;;;;;;;202.05;22.00;;;14.70;95.20;;;;;;5007238;28;20034;-56
2024/03/16 12:05:09;;;;;;;200.77;17.50;;;14.70;95.10;;;;;;4998903;28;20029;-56
2024/03/16 12:07:35;;;;;;;288.45;25.73;;;14.80;95.10;;;;;;4969807;28;20038;-57
2024/03/16 12:10:03;;;;;;;310.55;31.73;;;14.80;95.10;;;;;;5002483;28;20129;-57
2024/03/16 12:12:30;;;;;;;109.50;11.40;;;14.80;95.00;;;;;;4989394;28;20065;-57
2024/03/16 12:15:14;;;;;;;180.13;16.38;;;14.80;94.80;;;;;;5023222;28;20091;-56
2024/03/16 12:17:44;;;;;;;184.60;17.83;;;14.90;94.80;;;;;;5022972;28;20068;-56
2024/03/16 12:20:16;;;;;;;236.93;21.88;;;14.90;95.00;;;;;;5006519;28;20034;-56
2024/03/16 12:22:47;;;;;;;274.13;27.75;;;14.90;94.90;;;;;;5007901;28;20026;-57
2024/03/16 12:25:13;;;;;;;234.43;23.45;;;15.00;95.00;;;;;;4988664;28;20026;-56
2024/03/16 12:27:49;;;;;;;288.25;28.63;;;15.00;95.00;;;;;;5026237;28;20045;-56
2024/03/16 12:30:14;;;;;;;223.88;21.73;;;15.00;95.00;;;;;;5008685;28;20148;-57
2024/03/16 12:32:41;;;;;;;222.38;24.00;;;15.10;94.90;;;;;;5001550;28;20528;-56
2024/03/16 12:35:09;;;;;;;204.95;21.90;;;15.10;94.80;;;;;;5011700;28;20034;-57